Current Conditions

Updated: 24-Jun-2018 09:30 AM  
Summary / Temperature Wind Rain






Feels like: 86°F

1-hour difference
4.8°F 4.8°F warmer than last hour.

24-hour difference
0.9°F0.9°F warmer than yesterday at this time.

  Today Yesterday
High: 86.0°F
9:29 AM
101.9°F
4:30 PM
Low: 67.1°F
4:31 AM
66.0°F
5:27 AM
Wind from S S
1.1
Gust:  0.0 mph
0 Beaufort - Light Air

Today: 5.0 - 7:35 AM
Month: 13.0 mph - Jun 9
Rain Today: 0.00 in
Current Rate (/hr): 0.000 in
Max Rate (/hr):
Rain Yesterday: 0.00 in
Storm Rain: 0.00 in
This Month: 0.00 in
Season Total: 6.40 in
Last Rain Event: 68 days ago
Humidity / Barometer Sun / Moon
Humidity: 42 Decreased 7.0% in the last hour.
Dew Point: 60.2°F Increased 0.2°F in the last hour.
Barometer: 29.747 inHg  
Baro Trend: Steady
Sunrise: 5:40 AM
Sunset: 8:17 PM
Moonrise: 4:21 PM
Moonset: 3:26 AM
Sky Conditions UV Index
Summary: Clear
Visibility: 10 miles
Clouds: None
KVIS - 8:56 AM PDT
Current: 4.0  Moderate 
Sunday: 10.7  Very High 
Monday: 10.2  Very High 
Air Quality Fire Danger
 Good 
Ozone 39 ppb
PM 2.5 9 μg/m3
9:30 AM PDT
Current: 33  Low 

Local Alerts Local Forecast
Local NWS Alerts
Today

Sunny

High 103
Tonight

Clear

Low 67
Mon

Sunny

High 101
Mon night

Clear

Low 66
Tue

Sunny

High 102
Tue night

Clear

Low 63
Wed

Sunny

High 101

Local Radar Local Satellite Neighborhood Cam Sky Cam
Local Radar Local Satellite Neighborhood Cam Sky Cam


Nearby Personal Stations

Weather Underground PWS KCAEXETE7     Weather Underground PWS KCAEXETE6     Weather Underground PWS KCAEXETE11

Nearby Airport Stations

KVIS - Visalia, California, USA
Distance from station: W 14mi, 23km
Updated: Sun, 24-Jun-2018 8:56am PDT
Clear
Clear
 Wind from calm
Wind: Calm
Temperature: 79°F , 26°C
Dew Point: 57°F , 14°C
Humidity: 48%
Barometer: 29.79 inHg , 1008.8 hPa
Clouds: Clear
Visibility: 10 miles , 16 km
2018/06/24 15:56 KVIS 241556Z AUTO 00000KT 10SM CLR 26/14 A2979 RMK AO2 SLP089 T02560139 TSNO
KPTV - Porterville, California, USA
Distance from station: SSE 19mi, 31km
Updated: Sun, 24-Jun-2018 8:56am PDT

 Wind from SW
Wind: SW 5 mph , 7 km/h
Temperature: 82°F , 28°C
Dew Point: 52°F , 11°C
Humidity: 35%
Barometer: 29.80 inHg , 1009.1 hPa
Visibility: 10 miles , 16 km
2018/06/24 15:56 KPTV 241556Z AUTO 22004KT 10SM 28/11 A2980 RMK AO2 SLP094 T02780111

Metar display script from Saratoga-Weather.org



Visitor Map